sensor_id;sensor_type;location;lat;lon;timestamp;P1;durP1;ratioP1;P2;durP2;ratioP2
38130;SDS011;23947;51.894;4.622;2022-08-19T00:00:06;17.92;;;9.25;;
38130;SDS011;23947;51.894;4.622;2022-08-19T00:02:33;14.88;;;8.68;;
38130;SDS011;23947;51.894;4.622;2022-08-19T00:04:59;15.18;;;8.50;;
38130;SDS011;23947;51.894;4.622;2022-08-19T00:07:25;18.27;;;8.88;;
38130;SDS011;23947;51.894;4.622;2022-08-19T00:09:51;14.85;;;8.00;;
38130;SDS011;23947;51.894;4.622;2022-08-19T00:12:16;19.52;;;8.45;;
38130;SDS011;23947;51.894;4.622;2022-08-19T00:14:42;15.52;;;8.82;;
38130;SDS011;23947;51.894;4.622;2022-08-19T00:17:08;15.25;;;8.45;;
38130;SDS011;23947;51.894;4.622;2022-08-19T00:19:35;14.50;;;8.80;;
38130;SDS011;23947;51.894;4.622;2022-08-19T00:22:01;14.90;;;8.82;;
38130;SDS011;23947;51.894;4.622;2022-08-19T00:24:27;16.80;;;10.05;;
38130;SDS011;23947;51.894;4.622;2022-08-19T00:26:53;14.43;;;8.52;;
38130;SDS011;23947;51.894;4.622;2022-08-19T00:29:21;16.13;;;8.88;;
38130;SDS011;23947;51.894;4.622;2022-08-19T00:31:48;12.57;;;8.68;;
38130;SDS011;23947;51.894;4.622;2022-08-19T00:34:17;15.55;;;8.73;;
38130;SDS011;23947;51.894;4.622;2022-08-19T00:36:44;15.10;;;8.75;;
38130;SDS011;23947;51.894;4.622;2022-08-19T00:39:10;14.85;;;9.70;;
38130;SDS011;23947;51.894;4.622;2022-08-19T00:41:37;20.80;;;9.98;;
38130;SDS011;23947;51.894;4.622;2022-08-19T00:44:10;14.85;;;9.75;;
38130;SDS011;23947;51.894;4.622;2022-08-19T00:46:39;19.60;;;10.90;;
38130;SDS011;23947;51.894;4.622;2022-08-19T00:49:10;17.88;;;10.57;;
38130;SDS011;23947;51.894;4.622;2022-08-19T00:51:39;19.13;;;10.75;;
38130;SDS011;23947;51.894;4.622;2022-08-19T00:54:07;19.35;;;11.02;;
38130;SDS011;23947;51.894;4.622;2022-08-19T00:56:34;17.60;;;10.27;;
38130;SDS011;23947;51.894;4.622;2022-08-19T00:59:00;20.60;;;11.10;;
38130;SDS011;23947;51.894;4.622;2022-08-19T01:01:27;17.92;;;11.38;;
38130;SDS011;23947;51.894;4.622;2022-08-19T01:03:53;19.27;;;11.60;;
38130;SDS011;23947;51.894;4.622;2022-08-19T01:06:18;22.00;;;12.02;;
38130;SDS011;23947;51.894;4.622;2022-08-19T01:08:44;22.75;;;12.13;;
38130;SDS011;23947;51.894;4.622;2022-08-19T01:11:10;18.63;;;11.85;;
38130;SDS011;23947;51.894;4.622;2022-08-19T01:13:37;21.40;;;11.25;;
38130;SDS011;23947;51.894;4.622;2022-08-19T01:16:05;19.90;;;11.45;;
38130;SDS011;23947;51.894;4.622;2022-08-19T01:18:39;19.77;;;12.50;;
38130;SDS011;23947;51.894;4.622;2022-08-19T01:21:25;23.10;;;11.98;;
38130;SDS011;23947;51.894;4.622;2022-08-19T01:23:57;17.23;;;11.80;;
38130;SDS011;23947;51.894;4.622;2022-08-19T01:26:23;19.02;;;12.80;;
38130;SDS011;23947;51.894;4.622;2022-08-19T01:28:51;22.42;;;13.07;;
38130;SDS011;23947;51.894;4.622;2022-08-19T01:31:23;21.67;;;12.93;;
38130;SDS011;23947;51.894;4.622;2022-08-19T01:33:55;18.30;;;14.15;;
38130;SDS011;23947;51.894;4.622;2022-08-19T01:36:24;22.25;;;14.70;;
38130;SDS011;23947;51.894;4.622;2022-08-19T01:38:54;20.58;;;15.15;;
38130;SDS011;23947;51.894;4.622;2022-08-19T01:41:20;26.95;;;17.50;;
38130;SDS011;23947;51.894;4.622;2022-08-19T01:43:47;26.70;;;19.13;;
38130;SDS011;23947;51.894;4.622;2022-08-19T01:46:13;28.10;;;20.42;;
38130;SDS011;23947;51.894;4.622;2022-08-19T01:48:40;29.45;;;20.77;;
38130;SDS011;23947;51.894;4.622;2022-08-19T01:51:07;30.63;;;20.83;;
38130;SDS011;23947;51.894;4.622;2022-08-19T01:53:34;32.40;;;22.85;;
38130;SDS011;23947;51.894;4.622;2022-08-19T01:56:01;31.67;;;23.13;;
38130;SDS011;23947;51.894;4.622;2022-08-19T01:58:28;34.35;;;23.80;;
38130;SDS011;23947;51.894;4.622;2022-08-19T02:00:57;32.53;;;22.30;;
38130;SDS011;23947;51.894;4.622;2022-08-19T02:03:23;36.08;;;23.77;;
38130;SDS011;23947;51.894;4.622;2022-08-19T02:05:53;36.22;;;24.88;;
38130;SDS011;23947;51.894;4.622;2022-08-19T02:08:24;41.95;;;25.58;;
38130;SDS011;23947;51.894;4.622;2022-08-19T02:10:52;40.38;;;26.52;;
38130;SDS011;23947;51.894;4.622;2022-08-19T02:13:17;42.55;;;28.35;;
38130;SDS011;23947;51.894;4.622;2022-08-19T02:15:43;39.95;;;28.90;;
38130;SDS011;23947;51.894;4.622;2022-08-19T02:18:09;40.53;;;28.80;;
38130;SDS011;23947;51.894;4.622;2022-08-19T02:20:35;47.47;;;29.98;;
38130;SDS011;23947;51.894;4.622;2022-08-19T02:23:03;52.10;;;32.93;;
38130;SDS011;23947;51.894;4.622;2022-08-19T02:25:29;47.40;;;31.25;;
38130;SDS011;23947;51.894;4.622;2022-08-19T02:27:55;51.33;;;33.45;;
38130;SDS011;23947;51.894;4.622;2022-08-19T02:30:21;51.50;;;31.98;;
38130;SDS011;23947;51.894;4.622;2022-08-19T02:32:47;55.70;;;33.75;;
38130;SDS011;23947;51.894;4.622;2022-08-19T02:35:13;51.25;;;33.65;;
38130;SDS011;23947;51.894;4.622;2022-08-19T02:37:39;55.22;;;33.20;;
38130;SDS011;23947;51.894;4.622;2022-08-19T02:40:25;49.63;;;33.90;;
38130;SDS011;23947;51.894;4.622;2022-08-19T02:42:52;53.03;;;33.55;;
38130;SDS011;23947;51.894;4.622;2022-08-19T02:45:17;46.28;;;31.77;;
38130;SDS011;23947;51.894;4.622;2022-08-19T02:47:43;50.28;;;33.03;;
38130;SDS011;23947;51.894;4.622;2022-08-19T02:50:09;55.13;;;34.03;;
38130;SDS011;23947;51.894;4.622;2022-08-19T02:52:35;50.42;;;32.28;;
38130;SDS011;23947;51.894;4.622;2022-08-19T02:55:01;51.58;;;34.60;;
38130;SDS011;23947;51.894;4.622;2022-08-19T02:57:27;55.28;;;34.42;;
38130;SDS011;23947;51.894;4.622;2022-08-19T02:59:56;54.38;;;34.38;;
38130;SDS011;23947;51.894;4.622;2022-08-19T03:02:21;56.35;;;34.22;;
38130;SDS011;23947;51.894;4.622;2022-08-19T03:04:47;56.33;;;35.08;;
38130;SDS011;23947;51.894;4.622;2022-08-19T03:07:13;59.97;;;36.65;;
38130;SDS011;23947;51.894;4.622;2022-08-19T03:09:40;57.15;;;36.65;;
38130;SDS011;23947;51.894;4.622;2022-08-19T03:12:08;57.92;;;35.45;;
38130;SDS011;23947;51.894;4.622;2022-08-19T03:14:34;60.58;;;36.13;;
38130;SDS011;23947;51.894;4.622;2022-08-19T03:17:00;64.78;;;37.17;;
38130;SDS011;23947;51.894;4.622;2022-08-19T03:19:26;62.55;;;37.55;;
38130;SDS011;23947;51.894;4.622;2022-08-19T03:21:52;70.55;;;39.92;;
38130;SDS011;23947;51.894;4.622;2022-08-19T03:24:18;68.28;;;39.22;;
38130;SDS011;23947;51.894;4.622;2022-08-19T03:26:48;72.38;;;39.80;;
38130;SDS011;23947;51.894;4.622;2022-08-19T03:29:16;73.18;;;41.00;;
38130;SDS011;23947;51.894;4.622;2022-08-19T03:31:45;77.15;;;45.28;;
38130;SDS011;23947;51.894;4.622;2022-08-19T03:34:12;87.68;;;49.83;;
38130;SDS011;23947;51.894;4.622;2022-08-19T03:36:40;79.65;;;45.35;;
38130;SDS011;23947;51.894;4.622;2022-08-19T03:39:06;80.60;;;45.42;;
38130;SDS011;23947;51.894;4.622;2022-08-19T03:41:35;81.30;;;46.10;;
38130;SDS011;23947;51.894;4.622;2022-08-19T03:44:03;85.25;;;46.47;;
38130;SDS011;23947;51.894;4.622;2022-08-19T03:46:31;92.05;;;49.35;;
38130;SDS011;23947;51.894;4.622;2022-08-19T03:48:58;95.07;;;52.28;;
38130;SDS011;23947;51.894;4.622;2022-08-19T03:51:26;93.80;;;51.72;;
38130;SDS011;23947;51.894;4.622;2022-08-19T03:53:56;100.72;;;54.95;;
38130;SDS011;23947;51.894;4.622;2022-08-19T03:56:23;109.72;;;58.50;;
38130;SDS011;23947;51.894;4.622;2022-08-19T03:58:56;111.97;;;57.92;;
38130;SDS011;23947;51.894;4.622;2022-08-19T04:01:24;104.75;;;56.08;;
38130;SDS011;23947;51.894;4.622;2022-08-19T04:03:52;100.63;;;55.95;;
38130;SDS011;23947;51.894;4.622;2022-08-19T04:06:31;107.43;;;57.10;;
38130;SDS011;23947;51.894;4.622;2022-08-19T04:08:59;112.75;;;58.95;;
38130;SDS011;23947;51.894;4.622;2022-08-19T04:11:31;109.72;;;58.80;;
38130;SDS011;23947;51.894;4.622;2022-08-19T04:14:00;116.97;;;59.15;;
38130;SDS011;23947;51.894;4.622;2022-08-19T04:16:26;112.88;;;60.13;;
38130;SDS011;23947;51.894;4.622;2022-08-19T04:18:56;104.88;;;56.00;;
38130;SDS011;23947;51.894;4.622;2022-08-19T04:21:25;107.60;;;56.72;;
38130;SDS011;23947;51.894;4.622;2022-08-19T04:23:52;101.85;;;53.83;;
38130;SDS011;23947;51.894;4.622;2022-08-19T04:26:29;97.13;;;51.95;;
38130;SDS011;23947;51.894;4.622;2022-08-19T04:28:57;95.78;;;51.22;;
38130;SDS011;23947;51.894;4.622;2022-08-19T04:31:30;92.38;;;51.25;;
38130;SDS011;23947;51.894;4.622;2022-08-19T04:34:00;98.28;;;51.97;;
38130;SDS011;23947;51.894;4.622;2022-08-19T04:36:28;101.78;;;52.90;;
38130;SDS011;23947;51.894;4.622;2022-08-19T04:38:57;100.65;;;50.58;;
38130;SDS011;23947;51.894;4.622;2022-08-19T04:41:24;89.00;;;47.47;;
38130;SDS011;23947;51.894;4.622;2022-08-19T04:44:09;95.00;;;48.80;;
38130;SDS011;23947;51.894;4.622;2022-08-19T04:46:35;92.07;;;47.05;;
38130;SDS011;23947;51.894;4.622;2022-08-19T04:49:03;96.57;;;46.80;;
38130;SDS011;23947;51.894;4.622;2022-08-19T04:51:30;84.63;;;43.27;;
38130;SDS011;23947;51.894;4.622;2022-08-19T04:53:56;83.60;;;41.50;;
38130;SDS011;23947;51.894;4.622;2022-08-19T04:56:23;85.25;;;40.67;;
38130;SDS011;23947;51.894;4.622;2022-08-19T04:58:51;88.85;;;40.92;;
38130;SDS011;23947;51.894;4.622;2022-08-19T05:01:18;95.60;;;43.05;;
38130;SDS011;23947;51.894;4.622;2022-08-19T05:03:46;91.03;;;41.03;;
38130;SDS011;23947;51.894;4.622;2022-08-19T05:06:13;100.50;;;43.65;;
38130;SDS011;23947;51.894;4.622;2022-08-19T05:08:40;95.70;;;41.47;;
38130;SDS011;23947;51.894;4.622;2022-08-19T05:11:12;89.10;;;41.97;;
38130;SDS011;23947;51.894;4.622;2022-08-19T05:13:40;91.63;;;43.90;;
38130;SDS011;23947;51.894;4.622;2022-08-19T05:16:08;102.97;;;44.57;;
38130;SDS011;23947;51.894;4.622;2022-08-19T05:18:35;106.00;;;45.38;;
38130;SDS011;23947;51.894;4.622;2022-08-19T05:21:19;101.20;;;44.05;;
38130;SDS011;23947;51.894;4.622;2022-08-19T05:24:05;94.30;;;44.40;;
38130;SDS011;23947;51.894;4.622;2022-08-19T05:26:35;95.35;;;44.63;;
38130;SDS011;23947;51.894;4.622;2022-08-19T05:29:04;93.35;;;45.15;;
38130;SDS011;23947;51.894;4.622;2022-08-19T05:31:32;103.85;;;47.45;;
38130;SDS011;23947;51.894;4.622;2022-08-19T05:33:59;102.57;;;45.50;;
38130;SDS011;23947;51.894;4.622;2022-08-19T05:36:25;94.97;;;44.20;;
38130;SDS011;23947;51.894;4.622;2022-08-19T05:38:51;95.95;;;45.35;;
38130;SDS011;23947;51.894;4.622;2022-08-19T05:41:18;93.03;;;44.67;;
38130;SDS011;23947;51.894;4.622;2022-08-19T05:43:44;90.22;;;42.67;;
38130;SDS011;23947;51.894;4.622;2022-08-19T05:46:15;84.32;;;41.55;;
38130;SDS011;23947;51.894;4.622;2022-08-19T05:48:43;82.57;;;41.90;;
38130;SDS011;23947;51.894;4.622;2022-08-19T05:51:09;84.88;;;43.42;;
38130;SDS011;23947;51.894;4.622;2022-08-19T05:53:35;88.55;;;43.78;;
38130;SDS011;23947;51.894;4.622;2022-08-19T05:56:05;82.60;;;41.63;;
38130;SDS011;23947;51.894;4.622;2022-08-19T05:58:31;80.18;;;42.13;;
38130;SDS011;23947;51.894;4.622;2022-08-19T06:00:58;80.18;;;42.47;;
38130;SDS011;23947;51.894;4.622;2022-08-19T06:03:29;82.10;;;41.47;;
38130;SDS011;23947;51.894;4.622;2022-08-19T06:05:55;78.07;;;41.58;;
38130;SDS011;23947;51.894;4.622;2022-08-19T06:08:24;76.00;;;39.95;;
38130;SDS011;23947;51.894;4.622;2022-08-19T06:10:51;86.68;;;41.58;;
38130;SDS011;23947;51.894;4.622;2022-08-19T06:13:17;87.93;;;42.20;;
38130;SDS011;23947;51.894;4.622;2022-08-19T06:15:44;80.57;;;42.28;;
38130;SDS011;23947;51.894;4.622;2022-08-19T06:18:11;78.82;;;41.63;;
38130;SDS011;23947;51.894;4.622;2022-08-19T06:20:38;77.90;;;40.97;;
38130;SDS011;23947;51.894;4.622;2022-08-19T06:23:04;76.25;;;41.80;;
38130;SDS011;23947;51.894;4.622;2022-08-19T06:25:29;78.93;;;39.83;;
38130;SDS011;23947;51.894;4.622;2022-08-19T06:27:55;88.53;;;40.42;;
38130;SDS011;23947;51.894;4.622;2022-08-19T06:30:21;68.75;;;38.88;;
38130;SDS011;23947;51.894;4.622;2022-08-19T06:32:46;71.78;;;38.97;;
38130;SDS011;23947;51.894;4.622;2022-08-19T06:35:12;76.20;;;37.95;;
38130;SDS011;23947;51.894;4.622;2022-08-19T06:37:39;66.35;;;38.25;;
38130;SDS011;23947;51.894;4.622;2022-08-19T06:40:06;63.10;;;38.70;;
38130;SDS011;23947;51.894;4.622;2022-08-19T06:42:33;71.18;;;38.05;;
38130;SDS011;23947;51.894;4.622;2022-08-19T06:45:00;66.65;;;38.53;;
38130;SDS011;23947;51.894;4.622;2022-08-19T06:47:27;64.32;;;37.35;;
38130;SDS011;23947;51.894;4.622;2022-08-19T06:49:56;67.53;;;37.45;;
38130;SDS011;23947;51.894;4.622;2022-08-19T06:52:31;67.40;;;37.17;;
38130;SDS011;23947;51.894;4.622;2022-08-19T06:54:59;61.33;;;36.50;;
38130;SDS011;23947;51.894;4.622;2022-08-19T06:57:26;65.25;;;35.63;;
38130;SDS011;23947;51.894;4.622;2022-08-19T06:59:56;63.40;;;35.53;;
38130;SDS011;23947;51.894;4.622;2022-08-19T07:02:21;64.07;;;36.35;;
38130;SDS011;23947;51.894;4.622;2022-08-19T07:04:51;67.38;;;36.40;;
38130;SDS011;23947;51.894;4.622;2022-08-19T07:07:17;68.60;;;35.40;;
38130;SDS011;23947;51.894;4.622;2022-08-19T07:09:44;61.17;;;33.17;;
38130;SDS011;23947;51.894;4.622;2022-08-19T07:12:10;65.40;;;33.50;;
38130;SDS011;23947;51.894;4.622;2022-08-19T07:14:38;62.67;;;33.75;;
38130;SDS011;23947;51.894;4.622;2022-08-19T07:17:05;62.67;;;34.85;;
38130;SDS011;23947;51.894;4.622;2022-08-19T07:19:33;63.60;;;34.67;;
38130;SDS011;23947;51.894;4.622;2022-08-19T07:22:01;62.78;;;33.72;;
38130;SDS011;23947;51.894;4.622;2022-08-19T07:24:29;62.38;;;34.20;;
38130;SDS011;23947;51.894;4.622;2022-08-19T07:26:56;50.80;;;32.80;;
38130;SDS011;23947;51.894;4.622;2022-08-19T07:29:26;57.92;;;31.50;;
38130;SDS011;23947;51.894;4.622;2022-08-19T07:31:53;49.80;;;31.50;;
38130;SDS011;23947;51.894;4.622;2022-08-19T07:34:23;59.53;;;31.23;;
38130;SDS011;23947;51.894;4.622;2022-08-19T07:36:50;52.40;;;29.48;;
38130;SDS011;23947;51.894;4.622;2022-08-19T07:39:18;48.67;;;27.58;;
38130;SDS011;23947;51.894;4.622;2022-08-19T07:41:46;51.55;;;28.90;;
38130;SDS011;23947;51.894;4.622;2022-08-19T07:44:13;49.90;;;28.88;;
38130;SDS011;23947;51.894;4.622;2022-08-19T07:46:40;56.33;;;29.85;;
38130;SDS011;23947;51.894;4.622;2022-08-19T07:49:09;53.40;;;28.25;;
38130;SDS011;23947;51.894;4.622;2022-08-19T07:51:48;44.88;;;27.25;;
38130;SDS011;23947;51.894;4.622;2022-08-19T07:54:15;46.22;;;26.85;;
38130;SDS011;23947;51.894;4.622;2022-08-19T07:56:42;51.78;;;26.02;;
38130;SDS011;23947;51.894;4.622;2022-08-19T07:59:08;46.30;;;25.90;;
38130;SDS011;23947;51.894;4.622;2022-08-19T08:01:34;45.10;;;26.35;;
38130;SDS011;23947;51.894;4.622;2022-08-19T08:04:00;46.75;;;25.40;;
38130;SDS011;23947;51.894;4.622;2022-08-19T08:06:45;46.63;;;25.73;;
38130;SDS011;23947;51.894;4.622;2022-08-19T08:09:33;45.95;;;26.38;;
38130;SDS011;23947;51.894;4.622;2022-08-19T08:12:02;39.63;;;24.48;;
38130;SDS011;23947;51.894;4.622;2022-08-19T08:17:08;46.25;;;24.98;;
38130;SDS011;23947;51.894;4.622;2022-08-19T08:19:35;44.08;;;24.40;;
38130;SDS011;23947;51.894;4.622;2022-08-19T08:22:02;46.70;;;24.10;;
38130;SDS011;23947;51.894;4.622;2022-08-19T08:24:31;40.67;;;22.52;;
38130;SDS011;23947;51.894;4.622;2022-08-19T08:26:58;42.90;;;23.88;;
38130;SDS011;23947;51.894;4.622;2022-08-19T08:29:29;43.53;;;23.60;;
38130;SDS011;23947;51.894;4.622;2022-08-19T08:31:55;50.28;;;25.38;;
38130;SDS011;23947;51.894;4.622;2022-08-19T08:34:21;36.92;;;22.30;;
38130;SDS011;23947;51.894;4.622;2022-08-19T08:36:47;37.78;;;22.27;;
38130;SDS011;23947;51.894;4.622;2022-08-19T08:39:13;34.53;;;21.50;;
38130;SDS011;23947;51.894;4.622;2022-08-19T08:44:32;36.92;;;20.02;;
38130;SDS011;23947;51.894;4.622;2022-08-19T08:47:17;33.80;;;21.63;;
38130;SDS011;23947;51.894;4.622;2022-08-19T08:49:50;36.60;;;19.17;;
38130;SDS011;23947;51.894;4.622;2022-08-19T08:55:03;36.30;;;19.85;;
38130;SDS011;23947;51.894;4.622;2022-08-19T09:00:18;28.48;;;18.25;;
38130;SDS011;23947;51.894;4.622;2022-08-19T09:02:50;27.30;;;18.85;;
38130;SDS011;23947;51.894;4.622;2022-08-19T09:05:15;29.30;;;18.83;;
38130;SDS011;23947;51.894;4.622;2022-08-19T09:10:44;35.10;;;17.40;;
38130;SDS011;23947;51.894;4.622;2022-08-19T09:16:06;30.63;;;16.60;;
38130;SDS011;23947;51.894;4.622;2022-08-19T09:18:53;24.67;;;16.10;;
38130;SDS011;23947;51.894;4.622;2022-08-19T09:21:22;26.35;;;15.35;;
38130;SDS011;23947;51.894;4.622;2022-08-19T09:23:50;22.13;;;14.23;;
38130;SDS011;23947;51.894;4.622;2022-08-19T09:26:16;22.25;;;14.65;;
38130;SDS011;23947;51.894;4.622;2022-08-19T09:28:45;32.03;;;13.73;;
38130;SDS011;23947;51.894;4.622;2022-08-19T09:31:17;25.90;;;13.52;;
38130;SDS011;23947;51.894;4.622;2022-08-19T09:33:50;21.42;;;12.45;;
38130;SDS011;23947;51.894;4.622;2022-08-19T09:36:18;16.50;;;10.27;;
38130;SDS011;23947;51.894;4.622;2022-08-19T09:38:49;23.13;;;11.55;;
38130;SDS011;23947;51.894;4.622;2022-08-19T09:41:19;26.50;;;11.38;;
38130;SDS011;23947;51.894;4.622;2022-08-19T09:43:46;20.05;;;9.88;;
38130;SDS011;23947;51.894;4.622;2022-08-19T09:46:16;18.95;;;9.52;;
38130;SDS011;23947;51.894;4.622;2022-08-19T09:48:44;19.23;;;9.20;;
38130;SDS011;23947;51.894;4.622;2022-08-19T09:51:13;16.42;;;9.63;;
38130;SDS011;23947;51.894;4.622;2022-08-19T09:53:41;20.08;;;10.35;;
38130;SDS011;23947;51.894;4.622;2022-08-19T09:56:09;18.02;;;9.50;;
38130;SDS011;23947;51.894;4.622;2022-08-19T09:58:39;20.17;;;9.98;;
38130;SDS011;23947;51.894;4.622;2022-08-19T10:03:31;16.75;;;9.63;;
38130;SDS011;23947;51.894;4.622;2022-08-19T10:06:02;17.38;;;9.48;;
38130;SDS011;23947;51.894;4.622;2022-08-19T10:08:30;16.77;;;8.55;;
38130;SDS011;23947;51.894;4.622;2022-08-19T10:10:58;15.70;;;7.32;;
38130;SDS011;23947;51.894;4.622;2022-08-19T10:13:28;15.63;;;6.80;;
38130;SDS011;23947;51.894;4.622;2022-08-19T10:16:01;14.85;;;5.90;;
38130;SDS011;23947;51.894;4.622;2022-08-19T10:18:34;12.52;;;5.85;;
38130;SDS011;23947;51.894;4.622;2022-08-19T10:21:05;13.57;;;4.82;;
38130;SDS011;23947;51.894;4.622;2022-08-19T10:23:45;15.00;;;4.82;;
38130;SDS011;23947;51.894;4.622;2022-08-19T10:26:14;9.55;;;5.32;;
38130;SDS011;23947;51.894;4.622;2022-08-19T10:28:48;11.60;;;4.50;;
38130;SDS011;23947;51.894;4.622;2022-08-19T10:31:22;9.93;;;4.63;;
38130;SDS011;23947;51.894;4.622;2022-08-19T10:33:49;11.93;;;4.45;;
38130;SDS011;23947;51.894;4.622;2022-08-19T10:36:18;11.00;;;4.45;;
38130;SDS011;23947;51.894;4.622;2022-08-19T10:38:48;9.73;;;3.92;;
38130;SDS011;23947;51.894;4.622;2022-08-19T10:41:19;11.13;;;4.18;;
38130;SDS011;23947;51.894;4.622;2022-08-19T10:43:53;8.13;;;3.53;;
38130;SDS011;23947;51.894;4.622;2022-08-19T10:46:22;9.45;;;3.00;;
38130;SDS011;23947;51.894;4.622;2022-08-19T10:48:49;9.90;;;2.33;;
38130;SDS011;23947;51.894;4.622;2022-08-19T10:51:15;7.80;;;2.05;;
38130;SDS011;23947;51.894;4.622;2022-08-19T10:54:00;6.97;;;1.60;;
38130;SDS011;23947;51.894;4.622;2022-08-19T10:56:27;6.72;;;2.15;;
38130;SDS011;23947;51.894;4.622;2022-08-19T10:59:12;7.35;;;2.05;;
38130;SDS011;23947;51.894;4.622;2022-08-19T11:01:39;4.32;;;1.98;;
38130;SDS011;23947;51.894;4.622;2022-08-19T11:04:06;6.40;;;2.00;;
38130;SDS011;23947;51.894;4.622;2022-08-19T11:06:35;6.63;;;1.80;;
38130;SDS011;23947;51.894;4.622;2022-08-19T11:09:08;7.10;;;2.00;;
38130;SDS011;23947;51.894;4.622;2022-08-19T11:11:35;7.35;;;2.10;;
38130;SDS011;23947;51.894;4.622;2022-08-19T11:14:05;6.95;;;1.88;;
38130;SDS011;23947;51.894;4.622;2022-08-19T11:16:39;8.77;;;2.03;;
38130;SDS011;23947;51.894;4.622;2022-08-19T11:19:06;8.27;;;2.28;;
38130;SDS011;23947;51.894;4.622;2022-08-19T11:21:35;7.72;;;2.28;;
38130;SDS011;23947;51.894;4.622;2022-08-19T11:24:05;8.52;;;1.83;;
38130;SDS011;23947;51.894;4.622;2022-08-19T11:26:33;4.43;;;1.40;;
38130;SDS011;23947;51.894;4.622;2022-08-19T11:29:09;4.50;;;1.63;;
38130;SDS011;23947;51.894;4.622;2022-08-19T11:31:51;8.43;;;3.47;;
38130;SDS011;23947;51.894;4.622;2022-08-19T11:37:21;10.38;;;6.10;;
38130;SDS011;23947;51.894;4.622;2022-08-19T11:40:03;12.07;;;7.20;;
38130;SDS011;23947;51.894;4.622;2022-08-19T11:42:39;18.77;;;11.05;;
38130;SDS011;23947;51.894;4.622;2022-08-19T11:45:22;14.98;;;10.73;;
38130;SDS011;23947;51.894;4.622;2022-08-19T11:47:48;14.20;;;10.07;;
38130;SDS011;23947;51.894;4.622;2022-08-19T11:50:14;12.65;;;8.88;;
38130;SDS011;23947;51.894;4.622;2022-08-19T11:52:41;12.63;;;8.55;;
38130;SDS011;23947;51.894;4.622;2022-08-19T11:55:08;13.67;;;8.50;;
38130;SDS011;23947;51.894;4.622;2022-08-19T11:57:34;11.10;;;7.03;;
38130;SDS011;23947;51.894;4.622;2022-08-19T12:00:00;12.65;;;6.47;;
38130;SDS011;23947;51.894;4.622;2022-08-19T12:02:26;11.00;;;7.15;;
38130;SDS011;23947;51.894;4.622;2022-08-19T12:04:52;10.70;;;5.10;;
38130;SDS011;23947;51.894;4.622;2022-08-19T12:07:18;8.15;;;6.10;;
38130;SDS011;23947;51.894;4.622;2022-08-19T12:09:44;10.60;;;5.20;;
38130;SDS011;23947;51.894;4.622;2022-08-19T12:12:09;11.27;;;6.22;;
38130;SDS011;23947;51.894;4.622;2022-08-19T12:14:36;7.28;;;5.13;;
38130;SDS011;23947;51.894;4.622;2022-08-19T12:17:01;8.73;;;5.95;;
38130;SDS011;23947;51.894;4.622;2022-08-19T12:19:29;12.23;;;8.43;;
38130;SDS011;23947;51.894;4.622;2022-08-19T12:21:58;17.25;;;8.57;;
38130;SDS011;23947;51.894;4.622;2022-08-19T12:24:25;10.07;;;8.20;;
38130;SDS011;23947;51.894;4.622;2022-08-19T12:26:51;12.30;;;9.10;;
38130;SDS011;23947;51.894;4.622;2022-08-19T12:29:17;12.00;;;9.25;;
38130;SDS011;23947;51.894;4.622;2022-08-19T12:31:42;12.57;;;9.02;;
38130;SDS011;23947;51.894;4.622;2022-08-19T12:34:08;16.52;;;8.40;;
38130;SDS011;23947;51.894;4.622;2022-08-19T12:36:34;17.58;;;8.93;;
38130;SDS011;23947;51.894;4.622;2022-08-19T12:39:00;17.73;;;9.68;;
38130;SDS011;23947;51.894;4.622;2022-08-19T12:41:25;13.30;;;9.40;;
38130;SDS011;23947;51.894;4.622;2022-08-19T12:43:51;14.15;;;10.00;;
38130;SDS011;23947;51.894;4.622;2022-08-19T12:46:17;14.82;;;11.25;;
38130;SDS011;23947;51.894;4.622;2022-08-19T12:48:44;16.48;;;10.05;;
38130;SDS011;23947;51.894;4.622;2022-08-19T12:51:14;18.35;;;11.75;;
38130;SDS011;23947;51.894;4.622;2022-08-19T12:53:43;20.75;;;12.15;;
38130;SDS011;23947;51.894;4.622;2022-08-19T12:56:09;29.75;;;14.90;;
38130;SDS011;23947;51.894;4.622;2022-08-19T12:58:36;18.98;;;11.32;;
38130;SDS011;23947;51.894;4.622;2022-08-19T13:01:08;17.95;;;11.10;;
38130;SDS011;23947;51.894;4.622;2022-08-19T13:03:35;17.42;;;12.15;;
38130;SDS011;23947;51.894;4.622;2022-08-19T13:06:02;18.58;;;12.57;;
38130;SDS011;23947;51.894;4.622;2022-08-19T13:08:27;16.77;;;11.90;;
38130;SDS011;23947;51.894;4.622;2022-08-19T13:10:53;22.13;;;13.68;;
38130;SDS011;23947;51.894;4.622;2022-08-19T13:13:18;19.02;;;13.88;;
38130;SDS011;23947;51.894;4.622;2022-08-19T13:15:44;20.95;;;13.63;;
38130;SDS011;23947;51.894;4.622;2022-08-19T13:18:11;18.65;;;13.02;;
38130;SDS011;23947;51.894;4.622;2022-08-19T13:20:37;19.02;;;12.35;;
38130;SDS011;23947;51.894;4.622;2022-08-19T13:23:05;19.90;;;13.57;;
38130;SDS011;23947;51.894;4.622;2022-08-19T13:25:31;19.98;;;13.52;;
38130;SDS011;23947;51.894;4.622;2022-08-19T13:27:57;22.20;;;13.18;;
38130;SDS011;23947;51.894;4.622;2022-08-19T13:30:24;14.82;;;9.73;;
38130;SDS011;23947;51.894;4.622;2022-08-19T13:33:08;15.80;;;9.32;;
38130;SDS011;23947;51.894;4.622;2022-08-19T13:35:37;14.45;;;9.73;;
38130;SDS011;23947;51.894;4.622;2022-08-19T13:38:04;16.98;;;10.15;;
38130;SDS011;23947;51.894;4.622;2022-08-19T13:40:30;14.43;;;9.75;;
38130;SDS011;23947;51.894;4.622;2022-08-19T13:45:26;14.73;;;9.70;;
38130;SDS011;23947;51.894;4.622;2022-08-19T13:47:53;14.10;;;9.18;;
38130;SDS011;23947;51.894;4.622;2022-08-19T13:50:22;17.48;;;10.30;;
38130;SDS011;23947;51.894;4.622;2022-08-19T13:52:53;15.05;;;9.98;;
38130;SDS011;23947;51.894;4.622;2022-08-19T13:55:19;18.27;;;10.48;;
38130;SDS011;23947;51.894;4.622;2022-08-19T13:57:49;16.23;;;10.88;;
38130;SDS011;23947;51.894;4.622;2022-08-19T14:00:17;15.70;;;10.80;;
38130;SDS011;23947;51.894;4.622;2022-08-19T14:02:44;16.52;;;10.80;;
38130;SDS011;23947;51.894;4.622;2022-08-19T14:05:11;16.90;;;12.25;;
38130;SDS011;23947;51.894;4.622;2022-08-19T14:07:39;17.08;;;10.93;;
38130;SDS011;23947;51.894;4.622;2022-08-19T14:10:07;16.20;;;10.60;;
38130;SDS011;23947;51.894;4.622;2022-08-19T14:12:37;16.60;;;9.73;;
38130;SDS011;23947;51.894;4.622;2022-08-19T14:15:04;17.00;;;9.32;;
38130;SDS011;23947;51.894;4.622;2022-08-19T14:17:31;14.48;;;9.00;;
38130;SDS011;23947;51.894;4.622;2022-08-19T14:20:00;16.30;;;9.00;;
38130;SDS011;23947;51.894;4.622;2022-08-19T14:22:30;15.57;;;9.13;;
38130;SDS011;23947;51.894;4.622;2022-08-19T14:24:58;14.80;;;7.97;;
38130;SDS011;23947;51.894;4.622;2022-08-19T14:27:24;12.57;;;7.90;;
38130;SDS011;23947;51.894;4.622;2022-08-19T14:29:50;11.30;;;6.07;;
38130;SDS011;23947;51.894;4.622;2022-08-19T14:32:16;7.75;;;4.15;;
38130;SDS011;23947;51.894;4.622;2022-08-19T14:34:42;5.88;;;1.95;;
38130;SDS011;23947;51.894;4.622;2022-08-19T14:37:10;5.95;;;1.67;;
38130;SDS011;23947;51.894;4.622;2022-08-19T14:39:42;5.82;;;1.45;;
38130;SDS011;23947;51.894;4.622;2022-08-19T14:42:10;5.30;;;1.10;;
38130;SDS011;23947;51.894;4.622;2022-08-19T14:44:36;4.20;;;1.05;;
38130;SDS011;23947;51.894;4.622;2022-08-19T14:47:02;5.57;;;1.15;;
38130;SDS011;23947;51.894;4.622;2022-08-19T14:49:28;5.15;;;1.70;;
38130;SDS011;23947;51.894;4.622;2022-08-19T14:51:54;6.55;;;1.27;;
38130;SDS011;23947;51.894;4.622;2022-08-19T14:54:20;4.30;;;0.90;;
38130;SDS011;23947;51.894;4.622;2022-08-19T14:56:46;4.43;;;0.90;;